Time;durP1;ratioP1;P1;durP2;ratioP2;P2;SDS_P1;SDS_P2;PMS_P1;PMS_P2;Temp;Humidity;BMP_temperature;BMP_pressure;BME280_temperature;BME280_humidity;BME280_pressure;Samples;Min_cycle;Max_cycle;Signal;HPM_P1;HPM_P2
2023/07/24 00:01:54;;;;;;;;;;;14.30;79.80;;;;;;4952077;28;19914;-75
2023/07/24 00:04:20;;;;;;;;;;;14.30;79.80;;;;;;4969555;28;19925;-75
2023/07/24 00:06:45;;;;;;;;;;;14.30;79.80;;;;;;4936261;28;19957;-75
2023/07/24 00:09:11;;;;;;;;;;;14.20;79.70;;;;;;4969448;28;19918;-75
2023/07/24 00:11:37;;;;;;;;;;;14.20;79.70;;;;;;4952008;28;19925;-75
2023/07/24 00:14:02;;;;;;;;;;;14.20;79.70;;;;;;4951887;28;19914;-75
2023/07/24 00:16:28;;;;;;;;;;;14.20;79.70;;;;;;4951963;28;19913;-75
2023/07/24 00:18:53;;;;;;;;;;;14.20;79.60;;;;;;4951935;28;19921;-75
2023/07/24 00:21:19;;;;;;;;;;;14.20;79.70;;;;;;4952016;28;20314;-75
2023/07/24 00:23:44;;;;;;;;;;;14.20;79.70;;;;;;4969400;28;19918;-74
2023/07/24 00:26:10;;;;;;;;;;;14.10;79.60;;;;;;4969477;28;19918;-75
2023/07/24 00:28:35;;;;;;;;;;;14.10;79.70;;;;;;4969013;28;19961;-75
2023/07/24 00:31:01;;;;;;;;;;;14.00;79.70;;;;;;4951951;28;19927;-75
2023/07/24 00:33:26;;;;;;;;;;;14.00;79.70;;;;;;4953341;28;19957;-75
2023/07/24 00:35:57;;;;;;;;;;;14.00;79.70;;;;;;4936059;28;19968;-75
2023/07/24 00:38:23;;;;;;;;;;;13.90;79.60;;;;;;4969211;28;19910;-75
2023/07/24 00:40:48;;;;;;;;;;;13.90;79.70;;;;;;4972192;28;19918;-75
2023/07/24 00:43:14;;;;;;;;;;;13.90;79.70;;;;;;4973367;28;20372;-75
2023/07/24 00:45:39;;;;;;;;;;;13.80;79.60;;;;;;4939623;28;19921;-75
2023/07/24 00:48:05;;;;;;;;;;;13.80;79.70;;;;;;4939535;28;19918;-75
2023/07/24 00:50:31;;;;;;;;;;;13.80;79.70;;;;;;4939410;28;20004;-75
2023/07/24 00:52:57;;;;;;;;;;;13.80;79.70;;;;;;4972963;28;20382;-75
2023/07/24 00:55:22;;;;;;;;;;;13.80;79.70;;;;;;4955382;28;19918;-75
2023/07/24 00:57:49;;;;;;;;;;;13.80;79.70;;;;;;4972682;28;19914;-75
2023/07/24 01:00:15;;;;;;;;;;;13.80;79.60;;;;;;4972549;28;19918;-76
2023/07/24 01:02:42;;;;;;;;;;;13.80;79.60;;;;;;4972615;28;20016;-75
2023/07/24 01:05:07;;;;;;;;;;;13.80;79.60;;;;;;4972618;28;19917;-75
2023/07/24 01:07:33;;;;;;;;;;;13.70;79.60;;;;;;4972587;28;19914;-75
2023/07/24 01:09:58;;;;;;;;;;;13.70;79.60;;;;;;4972367;28;19949;-75
2023/07/24 01:12:43;;;;;;;;;;;13.70;79.60;;;;;;4972842;28;19957;-75
2023/07/24 01:15:18;;;;;;;;;;;13.70;79.70;;;;;;4955043;28;20028;-75
2023/07/24 01:17:46;;;;;;;;;;;13.70;79.70;;;;;;4972492;28;20032;-75
2023/07/24 01:20:14;;;;;;;;;;;13.60;79.60;;;;;;4972287;28;19910;-75
2023/07/24 01:22:48;;;;;;;;;;;13.60;79.70;;;;;;4954889;28;19914;-74
2023/07/24 01:25:13;;;;;;;;;;;13.60;79.60;;;;;;4972261;28;19914;-74
2023/07/24 01:27:42;;;;;;;;;;;13.60;79.60;;;;;;4972791;28;19917;-74
2023/07/24 01:30:08;;;;;;;;;;;13.60;79.60;;;;;;4954584;28;20009;-74
2023/07/24 01:32:34;;;;;;;;;;;13.60;79.60;;;;;;4972107;28;20005;-75
2023/07/24 01:34:59;;;;;;;;;;;13.50;79.60;;;;;;4972121;28;19927;-74
2023/07/24 01:37:26;;;;;;;;;;;13.50;79.70;;;;;;4954840;28;19973;-75
2023/07/24 01:39:52;;;;;;;;;;;13.60;79.70;;;;;;4954551;28;19916;-76
2023/07/24 01:42:18;;;;;;;;;;;13.60;79.70;;;;;;4972031;28;19940;-75
2023/07/24 01:44:43;;;;;;;;;;;13.70;79.70;;;;;;4971875;28;20347;-75
2023/07/24 01:47:09;;;;;;;;;;;13.70;79.60;;;;;;4938510;28;20037;-75
2023/07/24 01:49:34;;;;;;;;;;;13.80;79.70;;;;;;4954434;28;19921;-75
2023/07/24 01:52:00;;;;;;;;;;;13.80;79.60;;;;;;4953585;28;19915;-75
2023/07/24 01:54:26;;;;;;;;;;;13.90;79.60;;;;;;4971744;28;19918;-75
2023/07/24 01:56:52;;;;;;;;;;;13.90;79.60;;;;;;4954350;28;19914;-75
2023/07/24 01:59:17;;;;;;;;;;;14.00;79.60;;;;;;4971419;28;19918;-75
2023/07/24 02:01:43;;;;;;;;;;;14.00;79.60;;;;;;4971506;28;19911;-74
2023/07/24 02:04:08;;;;;;;;;;;14.10;79.60;;;;;;4971538;28;20371;-75
2023/07/24 02:06:34;;;;;;;;;;;14.10;79.60;;;;;;4954420;28;19936;-74
2023/07/24 02:08:59;;;;;;;;;;;14.10;79.50;;;;;;4973066;28;19914;-75
2023/07/24 02:11:25;;;;;;;;;;;14.20;79.50;;;;;;4954641;28;19922;-75
2023/07/24 02:13:51;;;;;;;;;;;14.20;79.60;;;;;;4938137;28;20274;-75
2023/07/24 02:16:16;;;;;;;;;;;14.20;79.60;;;;;;4971347;28;19918;-75
2023/07/24 02:18:42;;;;;;;;;;;14.20;79.60;;;;;;4971406;28;20260;-76
2023/07/24 02:21:08;;;;;;;;;;;14.20;79.60;;;;;;4953772;28;19910;-75
2023/07/24 02:23:34;;;;;;;;;;;14.20;79.50;;;;;;4953846;28;19918;-75
2023/07/24 02:26:00;;;;;;;;;;;14.20;79.50;;;;;;4937907;28;19914;-75
2023/07/24 02:28:25;;;;;;;;;;;14.10;79.50;;;;;;4953753;28;19922;-75
2023/07/24 02:30:51;;;;;;;;;;;14.10;79.50;;;;;;4970852;28;19922;-75
2023/07/24 02:33:17;;;;;;;;;;;14.10;79.50;;;;;;4971093;28;19918;-75
2023/07/24 02:35:43;;;;;;;;;;;14.10;79.60;;;;;;4971055;28;19918;-75
2023/07/24 02:38:08;;;;;;;;;;;14.00;79.60;;;;;;4970935;28;19927;-75
2023/07/24 02:40:35;;;;;;;;;;;14.00;79.60;;;;;;4953455;28;19920;-75
2023/07/24 02:43:00;;;;;;;;;;;14.00;79.60;;;;;;4953560;28;19921;-75
2023/07/24 02:45:26;;;;;;;;;;;14.00;79.60;;;;;;4970990;28;20370;-75
2023/07/24 02:47:52;;;;;;;;;;;13.90;79.60;;;;;;4937584;28;19992;-75
2023/07/24 02:50:17;;;;;;;;;;;13.90;79.70;;;;;;4970704;28;19924;-75
2023/07/24 02:52:43;;;;;;;;;;;14.00;79.70;;;;;;4970687;28;19914;-75
2023/07/24 02:55:08;;;;;;;;;;;14.00;79.70;;;;;;4937298;28;19965;-75
2023/07/24 02:57:34;;;;;;;;;;;14.00;79.70;;;;;;4970776;28;19934;-75
2023/07/24 02:59:59;;;;;;;;;;;13.90;79.60;;;;;;4953258;28;19914;-75
2023/07/24 03:02:25;;;;;;;;;;;14.00;79.70;;;;;;4953166;28;19987;-75
2023/07/24 03:04:50;;;;;;;;;;;14.00;79.70;;;;;;4970444;28;19917;-75
2023/07/24 03:07:16;;;;;;;;;;;13.90;79.60;;;;;;4953035;28;20264;-75
2023/07/24 03:09:44;;;;;;;;;;;13.90;79.60;;;;;;4953040;28;19918;-75
2023/07/24 03:12:11;;;;;;;;;;;13.90;79.60;;;;;;4937012;28;20586;-75
2023/07/24 03:14:36;;;;;;;;;;;13.80;79.50;;;;;;4953118;28;20099;-75
2023/07/24 03:17:02;;;;;;;;;;;13.80;79.60;;;;;;4953142;28;19965;-75
2023/07/24 03:19:27;;;;;;;;;;;13.80;79.60;;;;;;4970098;28;19965;-75
2023/07/24 03:21:53;;;;;;;;;;;13.70;79.60;;;;;;4952777;28;19924;-75
2023/07/24 03:24:18;;;;;;;;;;;13.70;79.70;;;;;;4970192;28;19911;-75
2023/07/24 03:26:44;;;;;;;;;;;13.70;79.80;;;;;;4970007;28;19915;-75
2023/07/24 03:29:09;;;;;;;;;;;13.60;79.70;;;;;;4952447;28;20326;-74
2023/07/24 03:31:35;;;;;;;;;;;13.60;79.70;;;;;;4969917;28;20012;-75
2023/07/24 03:34:01;;;;;;;;;;;13.50;79.60;;;;;;4952644;28;19910;-75
2023/07/24 03:36:26;;;;;;;;;;;13.50;79.70;;;;;;4952614;28;19926;-75
2023/07/24 03:38:52;;;;;;;;;;;13.50;79.80;;;;;;4969563;28;19997;-75
2023/07/24 03:41:17;;;;;;;;;;;13.50;79.80;;;;;;4952362;28;19960;-75
2023/07/24 03:43:43;;;;;;;;;;;13.50;79.80;;;;;;4970072;28;19918;-75
2023/07/24 03:46:08;;;;;;;;;;;13.40;79.80;;;;;;4953584;28;19965;-75
2023/07/24 03:48:37;;;;;;;;;;;13.50;79.80;;;;;;4952203;28;20012;-75
2023/07/24 03:51:02;;;;;;;;;;;13.50;79.80;;;;;;4936487;28;19921;-75
2023/07/24 03:53:28;;;;;;;;;;;13.50;79.80;;;;;;4969559;28;19914;-75
2023/07/24 03:55:54;;;;;;;;;;;13.50;79.80;;;;;;4969854;28;19918;-75
2023/07/24 03:58:20;;;;;;;;;;;13.60;79.80;;;;;;4936121;28;20016;-75
2023/07/24 04:00:45;;;;;;;;;;;13.60;79.80;;;;;;4951979;28;20337;-75
2023/07/24 04:03:11;;;;;;;;;;;13.60;79.90;;;;;;4969413;28;20000;-75
2023/07/24 04:05:36;;;;;;;;;;;13.60;79.90;;;;;;4952162;28;19941;-75
2023/07/24 04:08:02;;;;;;;;;;;13.70;79.80;;;;;;4969150;28;19921;-75
2023/07/24 04:10:28;;;;;;;;;;;13.80;79.80;;;;;;4969365;28;19910;-75
2023/07/24 04:12:54;;;;;;;;;;;13.80;79.70;;;;;;4952150;28;19914;-75
2023/07/24 04:15:20;;;;;;;;;;;13.80;79.60;;;;;;4968873;28;19915;-75
2023/07/24 04:17:45;;;;;;;;;;;13.80;79.60;;;;;;4969333;28;20438;-75
2023/07/24 04:20:11;;;;;;;;;;;13.80;79.70;;;;;;4969193;28;20130;-75
2023/07/24 04:22:36;;;;;;;;;;;13.70;79.80;;;;;;4969099;28;19928;-75
2023/07/24 04:25:02;;;;;;;;;;;13.70;79.80;;;;;;4951759;28;20391;-75
2023/07/24 04:27:28;;;;;;;;;;;13.80;79.80;;;;;;4969174;28;19914;-75
2023/07/24 04:29:53;;;;;;;;;;;13.80;79.80;;;;;;4969094;28;20021;-75
2023/07/24 04:32:19;;;;;;;;;;;13.70;79.80;;;;;;4951896;28;19977;-76
2023/07/24 04:34:44;;;;;;;;;;;13.70;79.80;;;;;;4952059;28;19914;-75
2023/07/24 04:37:10;;;;;;;;;;;13.70;79.80;;;;;;4969248;28;19915;-76
2023/07/24 04:39:38;;;;;;;;;;;13.70;79.80;;;;;;4935682;28;19926;-75
2023/07/24 04:42:04;;;;;;;;;;;13.70;79.70;;;;;;4951569;28;19911;-75
2023/07/24 04:44:29;;;;;;;;;;;13.70;79.60;;;;;;4968853;28;19921;-75
2023/07/24 04:46:55;;;;;;;;;;;13.60;79.50;;;;;;4969182;28;19914;-75
2023/07/24 04:49:21;;;;;;;;;;;13.60;79.50;;;;;;4951407;28;19929;-75
2023/07/24 04:51:47;;;;;;;;;;;13.50;79.50;;;;;;4969038;28;19918;-76
2023/07/24 04:54:12;;;;;;;;;;;13.50;79.40;;;;;;4951471;28;19921;-75
2023/07/24 04:56:38;;;;;;;;;;;13.50;79.40;;;;;;4951636;28;19914;-75
2023/07/24 04:59:03;;;;;;;;;;;13.40;79.40;;;;;;4968932;28;19921;-75
2023/07/24 05:01:29;;;;;;;;;;;13.40;79.40;;;;;;4935692;28;19921;-75
2023/07/24 05:03:54;;;;;;;;;;;13.40;79.40;;;;;;4969526;28;19914;-75
2023/07/24 05:06:20;;;;;;;;;;;13.50;79.40;;;;;;4935697;28;19914;-75
2023/07/24 05:08:45;;;;;;;;;;;13.50;79.40;;;;;;4968647;28;20410;-75
2023/07/24 05:11:11;;;;;;;;;;;13.50;79.50;;;;;;4951391;28;20302;-75
2023/07/24 05:13:36;;;;;;;;;;;13.60;79.50;;;;;;4968712;28;19922;-74
2023/07/24 05:16:02;;;;;;;;;;;13.70;79.60;;;;;;4968723;28;20326;-75
2023/07/24 05:18:28;;;;;;;;;;;13.90;79.50;;;;;;4968783;28;19910;-75
2023/07/24 05:20:53;;;;;;;;;;;13.90;79.30;;;;;;4952803;28;19968;-76
2023/07/24 05:23:19;;;;;;;;;;;13.90;79.10;;;;;;4968327;28;19969;-75
2023/07/24 05:25:44;;;;;;;;;;;14.00;79.10;;;;;;4968451;28;19953;-75
2023/07/24 05:28:10;;;;;;;;;;;13.90;79.10;;;;;;4971546;28;19918;-75
2023/07/24 05:30:35;;;;;;;;;;;13.90;79.10;;;;;;4954417;28;20013;-74
2023/07/24 05:33:01;;;;;;;;;;;13.90;79.10;;;;;;4972087;28;19949;-75
2023/07/24 05:35:27;;;;;;;;;;;14.00;79.10;;;;;;4971963;28;20060;-74
2023/07/24 05:37:52;;;;;;;;;;;13.90;79.10;;;;;;4954672;28;20347;-75
2023/07/24 05:40:18;;;;;;;;;;;13.90;79.10;;;;;;4972020;28;19984;-74
2023/07/24 05:42:43;;;;;;;;;;;13.90;79.20;;;;;;4954728;28;19938;-75
2023/07/24 05:45:11;;;;;;;;;;;14.00;79.30;;;;;;4954330;28;19928;-75
2023/07/24 05:47:36;;;;;;;;;;;13.90;79.30;;;;;;4954141;28;19910;-74
2023/07/24 05:50:02;;;;;;;;;;;14.00;79.30;;;;;;4953972;28;19925;-74
2023/07/24 05:52:28;;;;;;;;;;;13.90;79.40;;;;;;4954157;28;20350;-75
2023/07/24 05:54:54;;;;;;;;;;;13.90;79.50;;;;;;4954461;28;20053;-75
2023/07/24 05:57:19;;;;;;;;;;;13.90;79.50;;;;;;4971635;28;20008;-74
2023/07/24 05:59:45;;;;;;;;;;;14.00;79.50;;;;;;4937921;28;19915;-74
2023/07/24 06:02:11;;;;;;;;;;;14.00;79.60;;;;;;4953991;28;20481;-75
2023/07/24 06:04:36;;;;;;;;;;;14.10;79.70;;;;;;4954372;28;19925;-75
2023/07/24 06:07:02;;;;;;;;;;;14.30;79.80;;;;;;4971684;28;20262;-74
2023/07/24 06:09:27;;;;;;;;;;;14.40;79.90;;;;;;4971337;28;19918;-75
2023/07/24 06:11:53;;;;;;;;;;;14.50;79.80;;;;;;4971335;28;19917;-74
2023/07/24 06:14:18;;;;;;;;;;;14.60;79.90;;;;;;4971335;28;20281;-74
2023/07/24 06:16:44;;;;;;;;;;;14.80;79.90;;;;;;4971575;28;20326;-75
2023/07/24 06:19:10;;;;;;;;;;;14.90;79.90;;;;;;4971862;28;19918;-75
2023/07/24 06:21:35;;;;;;;;;;;15.20;80.20;;;;;;4937890;28;19914;-75
2023/07/24 06:24:01;;;;;;;;;;;15.70;79.80;;;;;;4954093;28;19918;-75
2023/07/24 06:26:26;;;;;;;;;;;16.00;79.30;;;;;;4971080;28;19961;-75
2023/07/24 06:28:52;;;;;;;;;;;16.00;79.20;;;;;;4952811;28;20294;-75
2023/07/24 06:31:17;;;;;;;;;;;16.10;79.30;;;;;;4970942;28;19914;-75
2023/07/24 06:33:43;;;;;;;;;;;16.10;79.30;;;;;;4971127;28;19950;-75
2023/07/24 06:36:09;;;;;;;;;;;16.10;79.30;;;;;;4971397;28;19991;-75
2023/07/24 06:38:34;;;;;;;;;;;16.10;79.40;;;;;;4970325;28;19989;-75
2023/07/24 06:41:00;;;;;;;;;;;16.10;79.50;;;;;;4970874;28;20008;-75
2023/07/24 06:43:25;;;;;;;;;;;16.20;79.50;;;;;;4970903;28;19914;-75
2023/07/24 06:45:51;;;;;;;;;;;16.20;79.40;;;;;;4970622;28;19916;-75
2023/07/24 06:48:16;;;;;;;;;;;16.20;79.50;;;;;;4953465;28;19918;-74
2023/07/24 06:50:42;;;;;;;;;;;16.30;79.40;;;;;;4953228;28;19992;-75
2023/07/24 06:53:08;;;;;;;;;;;16.40;79.30;;;;;;4953187;28;19921;-75
2023/07/24 06:55:33;;;;;;;;;;;16.30;79.20;;;;;;4973864;28;19918;-74
2023/07/24 06:57:59;;;;;;;;;;;16.30;79.40;;;;;;4971127;28;19918;-75
2023/07/24 07:00:24;;;;;;;;;;;16.40;79.30;;;;;;4936971;28;19920;-75
2023/07/24 07:02:50;;;;;;;;;;;16.80;79.20;;;;;;4936949;28;19980;-76
2023/07/24 07:05:15;;;;;;;;;;;17.00;78.40;;;;;;4970370;28;19937;-75
2023/07/24 07:07:41;;;;;;;;;;;17.00;78.20;;;;;;4952836;28;20185;-75
2023/07/24 07:10:07;;;;;;;;;;;16.90;78.40;;;;;;4936682;28;19924;-75
2023/07/24 07:12:32;;;;;;;;;;;16.70;78.50;;;;;;4970299;28;19914;-75
2023/07/24 07:14:58;;;;;;;;;;;16.60;78.80;;;;;;4970316;28;20347;-76
2023/07/24 07:17:23;;;;;;;;;;;16.60;79.30;;;;;;4969903;28;20267;-75
2023/07/24 07:19:49;;;;;;;;;;;17.10;80.20;;;;;;4969920;28;19938;-75
2023/07/24 07:22:14;;;;;;;;;;;18.10;80.90;;;;;;4952487;28;19949;-75
2023/07/24 07:24:40;;;;;;;;;;;19.50;80.50;;;;;;4969651;28;19937;-75
2023/07/24 07:27:05;;;;;;;;;;;20.70;80.10;;;;;;4969851;28;19979;-75
2023/07/24 07:29:31;;;;;;;;;;;22.30;79.30;;;;;;4936264;28;20271;-75
2023/07/24 07:31:57;;;;;;;;;;;23.80;78.10;;;;;;4952234;28;19919;-76
2023/07/24 07:34:22;;;;;;;;;;;25.10;77.00;;;;;;4952281;28;19926;-75
2023/07/24 07:36:48;;;;;;;;;;;26.10;76.60;;;;;;4951864;28;19917;-75
2023/07/24 07:39:13;;;;;;;;;;;26.50;76.30;;;;;;4969278;28;20386;-75
2023/07/24 07:41:39;;;;;;;;;;;26.50;76.30;;;;;;4936375;28;19917;-75
2023/07/24 07:44:05;;;;;;;;;;;26.00;76.30;;;;;;4952334;28;20004;-76
2023/07/24 07:46:30;;;;;;;;;;;25.10;77.10;;;;;;4969494;28;19970;-75
2023/07/24 07:48:56;;;;;;;;;;;24.60;78.20;;;;;;4951504;28;19929;-75
2023/07/24 07:51:24;;;;;;;;;;;24.40;78.80;;;;;;4951765;28;19918;-75
2023/07/24 07:53:49;;;;;;;;;;;23.90;78.60;;;;;;4969266;28;19914;-75
2023/07/24 07:56:15;;;;;;;;;;;23.10;78.90;;;;;;4969290;28;19943;-75
2023/07/24 07:58:40;;;;;;;;;;;22.50;79.60;;;;;;4969415;28;20382;-75
2023/07/24 08:01:06;;;;;;;;;;;21.90;80.10;;;;;;4935857;28;20386;-75
2023/07/24 08:03:32;;;;;;;;;;;21.60;80.50;;;;;;4951412;28;19988;-75
2023/07/24 08:05:58;;;;;;;;;;;21.20;80.70;;;;;;4968821;28;19914;-75
2023/07/24 08:08:24;;;;;;;;;;;20.90;80.90;;;;;;4969178;28;19988;-75
2023/07/24 08:10:49;;;;;;;;;;;20.70;81.10;;;;;;4951892;28;19957;-75
2023/07/24 08:13:15;;;;;;;;;;;20.50;81.00;;;;;;4969511;28;19964;-75
2023/07/24 08:15:40;;;;;;;;;;;20.40;81.20;;;;;;4952388;28;19956;-75
2023/07/24 08:18:06;;;;;;;;;;;20.50;81.30;;;;;;4970839;28;19925;-75
2023/07/24 08:20:34;;;;;;;;;;;20.70;81.30;;;;;;4936048;28;19914;-75
2023/07/24 08:23:00;;;;;;;;;;;20.90;81.20;;;;;;4968882;28;19921;-75
2023/07/24 08:25:25;;;;;;;;;;;21.20;81.70;;;;;;4969000;28;20282;-75
2023/07/24 08:27:51;;;;;;;;;;;21.40;81.00;;;;;;4947027;28;19946;-76
2023/07/24 08:30:17;;;;;;;;;;;21.60;81.30;;;;;;4966471;28;20029;-76
2023/07/24 08:32:43;;;;;;;;;;;22.00;81.60;;;;;;4972101;28;19969;-75
2023/07/24 08:35:09;;;;;;;;;;;22.50;81.70;;;;;;4972650;28;20362;-75
2023/07/24 08:37:35;;;;;;;;;;;22.80;81.20;;;;;;4971283;28;19980;-76
2023/07/24 08:40:00;;;;;;;;;;;23.00;81.10;;;;;;4955382;28;19914;-75
2023/07/24 08:42:26;;;;;;;;;;;23.20;81.20;;;;;;4970096;28;19950;-75
2023/07/24 08:44:52;;;;;;;;;;;23.50;80.90;;;;;;4982576;28;19921;-75
2023/07/24 08:47:18;;;;;;;;;;;23.90;81.70;;;;;;4969625;28;20001;-75
2023/07/24 08:49:44;;;;;;;;;;;25.00;82.40;;;;;;4953086;28;19914;-76
2023/07/24 08:52:10;;;;;;;;;;;26.30;82.70;;;;;;4969826;28;20390;-76
2023/07/24 08:54:36;;;;;;;;;;;27.30;82.10;;;;;;4976757;28;19915;-75
2023/07/24 08:57:02;;;;;;;;;;;28.00;82.00;;;;;;4980828;28;19961;-76
2023/07/24 08:59:29;;;;;;;;;;;28.60;82.00;;;;;;4952086;28;19950;-75
2023/07/24 09:01:55;;;;;;;;;;;28.60;81.50;;;;;;4972643;28;20372;-75
2023/07/24 09:04:21;;;;;;;;;;;29.10;82.70;;;;;;4973186;28;20017;-75
2023/07/24 09:06:46;;;;;;;;;;;29.40;81.70;;;;;;4965553;28;20419;-75
2023/07/24 09:09:14;;;;;;;;;;;28.90;81.20;;;;;;4972445;28;19914;-75
2023/07/24 09:11:50;;;;;;;;;;;28.40;81.10;;;;;;4971846;28;20540;-75
2023/07/24 09:14:31;;;;;;;;;;;27.50;80.60;;;;;;4971975;28;20343;-76
2023/07/24 09:17:03;;;;;;;;;;;26.40;81.00;;;;;;4955261;28;19932;-74
2023/07/24 09:19:29;;;;;;;;;;;25.40;81.50;;;;;;4955322;28;20311;-75
2023/07/24 09:21:54;;;;;;;;;;;24.70;81.80;;;;;;4963153;28;19925;-75
2023/07/24 09:24:20;;;;;;;;;;;24.00;81.50;;;;;;4972554;28;19918;-73
2023/07/24 09:26:52;;;;;;;;;;;23.40;81.90;;;;;;4964500;28;19921;-73
2023/07/24 09:29:18;;;;;;;;;;;22.80;82.20;;;;;;4968840;28;19926;-73
2023/07/24 09:31:45;;;;;;;;;;;22.20;82.50;;;;;;4962906;28;19919;-73
2023/07/24 09:34:15;;;;;;;;;;;21.90;82.70;;;;;;4946040;28;19985;-73
2023/07/24 09:36:40;;;;;;;;;;;21.70;82.90;;;;;;4948821;29;19918;-74
2023/07/24 09:39:10;;;;;;;;;;;21.70;83.50;;;;;;4960467;28;19929;-73
2023/07/24 09:41:36;;;;;;;;;;;21.80;83.40;;;;;;4961618;28;20366;-73
2023/07/24 09:44:01;;;;;;;;;;;21.80;83.00;;;;;;4956194;28;19925;-74
2023/07/24 09:46:28;;;;;;;;;;;21.80;82.70;;;;;;4959154;28;19911;-74
2023/07/24 09:48:54;;;;;;;;;;;21.70;82.70;;;;;;4922893;29;19914;-76
2023/07/24 09:51:20;;;;;;;;;;;21.70;82.60;;;;;;4941902;29;19985;-74
2023/07/24 09:53:46;;;;;;;;;;;21.80;82.40;;;;;;4926111;29;20009;-74
2023/07/24 09:56:12;;;;;;;;;;;22.00;82.60;;;;;;4954334;28;19990;-73
2023/07/24 09:58:39;;;;;;;;;;;22.10;82.10;;;;;;4964924;28;19958;-74
2023/07/24 10:01:08;;;;;;;;;;;22.00;81.70;;;;;;4960748;28;19917;-74
2023/07/24 10:03:34;;;;;;;;;;;21.70;81.60;;;;;;4955263;28;19933;-73
2023/07/24 10:06:00;;;;;;;;;;;21.50;81.60;;;;;;4953040;29;19911;-73
2023/07/24 10:08:26;;;;;;;;;;;21.30;81.50;;;;;;4959715;28;19911;-72
2023/07/24 10:10:53;;;;;;;;;;;21.20;82.00;;;;;;4974633;28;19914;-74
2023/07/24 10:13:21;;;;;;;;;;;21.30;82.10;;;;;;4939348;28;19914;-73
2023/07/24 10:15:47;;;;;;;;;;;21.40;82.20;;;;;;4956225;28;20032;-74
2023/07/24 10:18:12;;;;;;;;;;;21.80;82.90;;;;;;4955111;28;20563;-74
2023/07/24 10:20:39;;;;;;;;;;;22.90;84.40;;;;;;4972571;28;19957;-74
2023/07/24 10:23:05;;;;;;;;;;;24.70;85.30;;;;;;4971712;28;19921;-74
2023/07/24 10:25:31;;;;;;;;;;;26.50;84.30;;;;;;4971670;28;19917;-74
2023/07/24 10:28:10;;;;;;;;;;;27.10;82.60;;;;;;4954739;28;19928;-74
2023/07/24 10:30:35;;;;;;;;;;;27.00;81.30;;;;;;4970604;28;20041;-74
2023/07/24 10:33:03;;;;;;;;;;;26.10;80.50;;;;;;4971053;28;20190;-74
2023/07/24 10:35:36;;;;;;;;;;;25.20;81.00;;;;;;4971873;28;19914;-75
2023/07/24 10:38:02;;;;;;;;;;;24.60;81.70;;;;;;4954309;28;19988;-74
2023/07/24 10:40:27;;;;;;;;;;;24.10;81.90;;;;;;4970721;28;20347;-74
2023/07/24 10:43:20;;;;;;;;;;;23.70;81.90;;;;;;4971306;28;19929;-74
2023/07/24 10:45:49;;;;;;;;;;;23.40;82.30;;;;;;4950361;28;20009;-74
2023/07/24 10:48:15;;;;;;;;;;;23.40;82.70;;;;;;4971576;28;19918;-73
2023/07/24 10:50:42;;;;;;;;;;;23.40;82.50;;;;;;4971384;28;19941;-73
2023/07/24 10:53:08;;;;;;;;;;;23.30;82.40;;;;;;4971576;28;19942;-73
2023/07/24 10:55:34;;;;;;;;;;;23.70;83.90;;;;;;4971426;28;19910;-74
2023/07/24 10:57:59;;;;;;;;;;;25.00;84.90;;;;;;4954125;28;19921;-75
2023/07/24 11:00:25;;;;;;;;;;;26.50;84.80;;;;;;4971113;28;19918;-73
2023/07/24 11:02:52;;;;;;;;;;;27.70;84.00;;;;;;4953018;28;19965;-73
2023/07/24 11:05:19;;;;;;;;;;;28.60;83.40;;;;;;4970959;28;20232;-74
2023/07/24 11:07:45;;;;;;;;;;;28.70;82.90;;;;;;4933959;29;20013;-74
2023/07/24 11:10:20;;;;;;;;;;;28.90;83.00;;;;;;4949989;29;19968;-73
2023/07/24 11:12:46;;;;;;;;;;;29.00;83.50;;;;;;4935612;28;19946;-74
2023/07/24 11:15:12;;;;;;;;;;;28.90;82.80;;;;;;4933775;28;20014;-74
2023/07/24 11:17:41;;;;;;;;;;;28.70;82.70;;;;;;4961110;28;19964;-74
2023/07/24 11:20:07;;;;;;;;;;;28.50;82.40;;;;;;4962632;28;19918;-74
2023/07/24 11:22:33;;;;;;;;;;;28.70;83.90;;;;;;4951337;28;19915;-74
2023/07/24 11:24:58;;;;;;;;;;;29.50;84.60;;;;;;4951601;28;19914;-75
2023/07/24 11:27:24;;;;;;;;;;;30.30;84.40;;;;;;4951404;29;19924;-74
2023/07/24 11:29:50;;;;;;;;;;;30.50;83.40;;;;;;4962256;28;19926;-74
2023/07/24 11:32:20;;;;;;;;;;;30.10;82.80;;;;;;4952321;28;20266;-75
2023/07/24 11:34:49;;;;;;;;;;;29.70;82.40;;;;;;4985057;28;20004;-74
2023/07/24 11:37:15;;;;;;;;;;;29.10;82.00;;;;;;4952173;28;20389;-75
2023/07/24 11:39:41;;;;;;;;;;;28.50;82.20;;;;;;4970069;28;19993;-67
2023/07/24 11:42:06;;;;;;;;;;;27.90;82.00;;;;;;4970002;28;20497;-74
2023/07/24 11:44:32;;;;;;;;;;;27.20;82.20;;;;;;4969890;28;20041;-74
2023/07/24 11:47:07;;;;;;;;;;;26.60;82.30;;;;;;4984721;28;20009;-73
2023/07/24 11:49:32;;;;;;;;;;;26.10;82.40;;;;;;4984792;28;19929;-73
2023/07/24 11:52:05;;;;;;;;;;;25.70;82.20;;;;;;4970320;28;19918;-73
2023/07/24 11:54:30;;;;;;;;;;;25.30;82.40;;;;;;4970619;28;19914;-74
2023/07/24 11:56:56;;;;;;;;;;;24.80;82.40;;;;;;4970001;28;20326;-73
2023/07/24 11:59:22;;;;;;;;;;;24.40;82.90;;;;;;4968221;28;19922;-74
2023/07/24 12:01:48;;;;;;;;;;;24.20;83.30;;;;;;4969591;28;19922;-74
2023/07/24 12:04:14;;;;;;;;;;;24.20;83.30;;;;;;4969440;28;19945;-74
2023/07/24 12:06:39;;;;;;;;;;;24.30;83.10;;;;;;4969329;28;20389;-74
2023/07/24 12:09:05;;;;;;;;;;;24.50;82.80;;;;;;4984443;28;20038;-73
2023/07/24 12:11:31;;;;;;;;;;;24.50;82.50;;;;;;4969622;28;19910;-74
2023/07/24 12:13:57;;;;;;;;;;;24.30;82.20;;;;;;4969523;28;20446;-74
2023/07/24 12:16:22;;;;;;;;;;;24.10;82.30;;;;;;4968939;28;20012;-74
2023/07/24 12:18:48;;;;;;;;;;;23.90;82.40;;;;;;4969084;28;19934;-74
2023/07/24 12:21:14;;;;;;;;;;;23.80;82.50;;;;;;4966439;28;19926;-74
2023/07/24 12:23:39;;;;;;;;;;;23.70;82.40;;;;;;4958534;28;19977;-75
2023/07/24 12:26:05;;;;;;;;;;;23.60;82.40;;;;;;4967712;28;19910;-74
2023/07/24 12:28:30;;;;;;;;;;;23.60;82.40;;;;;;4951765;28;19973;-74
2023/07/24 12:30:56;;;;;;;;;;;23.70;82.50;;;;;;4927076;29;19966;-73
2023/07/24 12:33:23;;;;;;;;;;;23.90;82.90;;;;;;4941840;29;19922;-75
2023/07/24 12:35:49;;;;;;;;;;;24.40;82.50;;;;;;4951410;28;19938;-74
2023/07/24 12:38:15;;;;;;;;;;;24.80;82.00;;;;;;4937028;29;19918;-74
2023/07/24 12:40:40;;;;;;;;;;;25.00;81.50;;;;;;4936538;29;19916;-74
2023/07/24 12:43:06;;;;;;;;;;;25.10;80.80;;;;;;4936204;29;20423;-74
2023/07/24 12:45:31;;;;;;;;;;;25.00;80.50;;;;;;4953292;29;19938;-74
2023/07/24 12:47:57;;;;;;;;;;;24.70;80.60;;;;;;4953610;29;19970;-73
2023/07/24 12:50:25;;;;;;;;;;;24.40;80.90;;;;;;4935745;29;19937;-73
2023/07/24 12:52:51;;;;;;;;;;;24.10;81.30;;;;;;4915383;29;20356;-74
2023/07/24 12:55:17;;;;;;;;;;;24.20;81.60;;;;;;4947085;28;19915;-74
2023/07/24 12:57:42;;;;;;;;;;;24.30;81.40;;;;;;4953771;29;19919;-73
2023/07/24 13:00:09;;;;;;;;;;;24.40;81.10;;;;;;4953606;29;20001;-73
2023/07/24 13:02:34;;;;;;;;;;;24.30;81.20;;;;;;4953603;29;19926;-73
2023/07/24 13:05:00;;;;;;;;;;;24.30;81.30;;;;;;4953234;28;20278;-74
2023/07/24 13:07:26;;;;;;;;;;;24.50;81.40;;;;;;4936267;29;19918;-74
2023/07/24 13:09:51;;;;;;;;;;;24.60;81.10;;;;;;4951070;29;19922;-74
2023/07/24 13:12:17;;;;;;;;;;;24.70;81.20;;;;;;4929513;29;19918;-73
2023/07/24 13:14:42;;;;;;;;;;;24.80;81.20;;;;;;4934383;29;19919;-75
2023/07/24 13:17:09;;;;;;;;;;;25.00;80.80;;;;;;4934178;29;19915;-75
2023/07/24 13:19:34;;;;;;;;;;;25.00;80.40;;;;;;4934131;29;20290;-74
2023/07/24 13:22:00;;;;;;;;;;;24.80;80.70;;;;;;4933791;29;19941;-74
2023/07/24 13:24:25;;;;;;;;;;;24.80;81.00;;;;;;4916448;29;20355;-74
2023/07/24 13:26:51;;;;;;;;;;;24.80;81.00;;;;;;4900813;29;19931;-74
2023/07/24 13:29:16;;;;;;;;;;;24.70;81.10;;;;;;4904340;29;19935;-73
2023/07/24 13:31:42;;;;;;;;;;;24.60;81.60;;;;;;4933928;29;20028;-74
2023/07/24 13:34:10;;;;;;;;;;;24.70;81.80;;;;;;4928723;29;19941;-73
2023/07/24 13:36:36;;;;;;;;;;;24.80;81.90;;;;;;4954633;28;20005;-73
2023/07/24 13:39:02;;;;;;;;;;;24.80;81.90;;;;;;4938873;29;19938;-74
2023/07/24 13:41:27;;;;;;;;;;;24.80;81.50;;;;;;4952437;29;19980;-72
2023/07/24 13:43:53;;;;;;;;;;;24.80;81.70;;;;;;4952933;29;20026;-73
2023/07/24 13:46:18;;;;;;;;;;;24.90;81.40;;;;;;4935087;28;19966;-74
2023/07/24 13:48:44;;;;;;;;;;;24.90;80.70;;;;;;4952962;29;19915;-75
2023/07/24 13:51:10;;;;;;;;;;;24.70;80.50;;;;;;4935804;29;19957;-75
2023/07/24 13:53:36;;;;;;;;;;;24.40;80.40;;;;;;4952967;29;19915;-75
2023/07/24 13:56:02;;;;;;;;;;;24.10;80.40;;;;;;4952646;29;20374;-75
2023/07/24 13:58:28;;;;;;;;;;;23.70;80.50;;;;;;4951932;29;19914;-75
2023/07/24 14:00:53;;;;;;;;;;;23.30;80.90;;;;;;4952367;29;19922;-75
2023/07/24 14:03:19;;;;;;;;;;;23.10;80.70;;;;;;4951969;29;19929;-75
2023/07/24 14:05:44;;;;;;;;;;;22.90;80.90;;;;;;4952174;29;20287;-74
2023/07/24 14:08:11;;;;;;;;;;;22.80;80.80;;;;;;4953265;29;19914;-75
2023/07/24 14:10:37;;;;;;;;;;;22.80;80.50;;;;;;4953196;29;20431;-77